createdAt,value
2023-04-16T00:00:46.547Z,2202.00
2023-04-16T00:01:46.633Z,2202.00
2023-04-16T00:02:46.843Z,2187.00
2023-04-16T00:03:47.086Z,2197.00
2023-04-16T00:04:46.879Z,2207.00
2023-04-16T00:05:46.924Z,2192.00
2023-04-16T00:06:46.995Z,2190.00
2023-04-16T00:07:47.068Z,2173.00
2023-04-16T00:08:47.168Z,2188.00
2023-04-16T00:09:47.235Z,2192.00
2023-04-16T00:10:47.307Z,2180.00
2023-04-16T00:11:47.444Z,2184.00
2023-04-16T00:12:47.469Z,2188.00
2023-04-16T00:13:47.550Z,2185.00
2023-04-16T00:14:47.631Z,2185.00
2023-04-16T00:15:47.716Z,2183.00
2023-04-16T00:16:47.833Z,2179.00
2023-04-16T00:17:47.929Z,2178.00
2023-04-16T00:18:47.978Z,2178.00
2023-04-16T00:19:48.038Z,2177.00
2023-04-16T00:20:48.122Z,2172.00
2023-04-16T00:21:48.221Z,2168.00
2023-04-16T00:22:48.283Z,2160.00
2023-04-16T00:23:48.377Z,2162.00
2023-04-16T00:24:48.452Z,2178.00
2023-04-16T00:25:48.528Z,2161.00
2023-04-16T00:26:48.617Z,2180.00
2023-04-16T00:27:48.714Z,2158.00
2023-04-16T00:28:48.770Z,2168.00
2023-04-16T00:29:48.839Z,2154.00
2023-04-16T00:30:48.923Z,2163.00
2023-04-16T00:31:49.014Z,2162.00
2023-04-16T00:32:49.076Z,2159.00
2023-04-16T00:33:49.154Z,2150.00
2023-04-16T00:34:49.228Z,2157.00
2023-04-16T00:35:49.303Z,2155.00
2023-04-16T00:36:49.389Z,2154.00
2023-04-16T00:37:49.464Z,2147.00
2023-04-16T00:38:49.541Z,2141.00
2023-04-16T00:39:49.622Z,2147.00
2023-04-16T00:40:49.718Z,2141.00
2023-04-16T00:41:49.800Z,2145.00
2023-04-16T00:42:49.858Z,2143.00
2023-04-16T00:43:49.942Z,2140.00
2023-04-16T00:44:50.024Z,2135.00
2023-04-16T00:45:50.126Z,2137.00
2023-04-16T00:46:50.190Z,2136.00
2023-04-16T00:47:50.294Z,2136.00
2023-04-16T00:48:50.339Z,2137.00
2023-04-16T00:49:50.419Z,2138.00
2023-04-16T00:50:50.494Z,2137.00
2023-04-16T00:51:50.578Z,2122.00
2023-04-16T00:52:50.645Z,2147.00
2023-04-16T00:53:50.732Z,2144.00
2023-04-16T00:54:50.809Z,2123.00
2023-04-16T00:55:50.898Z,2136.00
2023-04-16T00:56:50.999Z,2120.00
2023-04-16T00:57:51.060Z,2107.00
2023-04-16T00:58:51.129Z,2114.00
2023-04-16T00:59:51.225Z,2125.00
2023-04-16T01:00:51.316Z,2113.00
2023-04-16T01:01:51.484Z,2109.00
2023-04-16T01:02:51.589Z,2140.00
2023-04-16T01:03:51.615Z,2120.00
2023-04-16T01:04:51.634Z,2115.00
2023-04-16T01:05:51.724Z,2122.00
2023-04-16T01:06:51.803Z,2106.00
2023-04-16T01:07:51.879Z,2104.00
2023-04-16T01:08:51.972Z,2111.00
2023-04-16T01:09:52.044Z,2106.00
2023-04-16T01:10:52.124Z,2099.00
2023-04-16T01:11:52.221Z,2091.00
2023-04-16T01:12:52.287Z,2090.00
2023-04-16T01:13:52.363Z,2102.00
2023-04-16T01:14:52.455Z,2105.00
2023-04-16T01:15:52.555Z,2093.00
2023-04-16T01:16:52.641Z,2089.00
2023-04-16T01:17:52.748Z,2090.00
2023-04-16T01:18:52.778Z,2099.00
2023-04-16T01:19:52.871Z,2099.00
2023-04-16T01:20:52.948Z,2092.00
2023-04-16T01:21:53.027Z,2087.00
2023-04-16T01:22:53.099Z,2094.00
2023-04-16T01:23:53.123Z,2095.00
2023-04-16T01:24:53.136Z,2095.00
2023-04-16T01:25:53.163Z,2097.00
2023-04-16T01:26:53.172Z,2091.00
2023-04-16T01:27:53.197Z,2092.00
2023-04-16T01:28:53.229Z,2082.00
2023-04-16T01:29:53.241Z,2079.00
2023-04-16T01:30:53.270Z,2095.00
2023-04-16T01:31:53.518Z,2089.00
2023-04-16T01:32:53.367Z,2077.00
2023-04-16T01:33:53.429Z,2098.00
2023-04-16T01:34:53.499Z,2079.00
2023-04-16T01:35:53.602Z,2087.00
2023-04-16T01:36:53.668Z,2075.00
2023-04-16T01:37:53.761Z,2077.00
2023-04-16T01:38:53.835Z,2078.00
2023-04-16T01:39:53.917Z,2071.00
2023-04-16T01:40:54.006Z,2065.00
2023-04-16T01:41:54.089Z,2075.00
2023-04-16T01:42:54.180Z,2076.00
2023-04-16T01:43:54.251Z,2073.00
2023-04-16T01:44:54.352Z,2078.00
2023-04-16T01:45:54.426Z,2078.00
2023-04-16T01:46:54.540Z,2070.00
2023-04-16T01:47:54.625Z,2054.00
2023-04-16T01:48:54.678Z,2058.00
2023-04-16T01:49:54.741Z,2062.00
2023-04-16T01:50:54.812Z,2069.00
2023-04-16T01:51:54.843Z,2069.00
2023-04-16T01:52:54.858Z,2065.00
2023-04-16T01:53:54.854Z,2069.00
2023-04-16T01:54:54.880Z,2065.00
2023-04-16T01:55:54.873Z,2061.00
2023-04-16T01:56:54.885Z,2070.00
2023-04-16T01:57:54.915Z,2070.00
2023-04-16T01:58:54.907Z,2070.00
2023-04-16T01:59:54.929Z,2071.00
2023-04-16T02:00:54.946Z,2072.00
2023-04-16T02:01:55.101Z,2070.00
2023-04-16T02:02:55.075Z,2072.00
2023-04-16T02:03:55.146Z,2071.00
2023-04-16T02:04:54.993Z,2069.00
2023-04-16T02:05:55.010Z,2060.00
2023-04-16T02:06:55.022Z,2062.00
2023-04-16T02:07:55.048Z,2062.00
2023-04-16T02:08:55.039Z,2080.00
2023-04-16T02:09:55.078Z,2053.00
2023-04-16T02:10:55.150Z,2055.00
2023-04-16T02:11:55.220Z,2035.00
2023-04-16T02:12:55.321Z,2042.00
2023-04-16T02:13:55.397Z,2046.00
2023-04-16T02:14:55.482Z,2045.00
2023-04-16T02:15:55.564Z,2046.00
2023-04-16T02:16:55.662Z,2046.00
2023-04-16T02:17:55.727Z,2047.00
2023-04-16T02:18:55.766Z,2032.00
2023-04-16T02:19:55.851Z,2035.00
2023-04-16T02:20:55.918Z,2036.00
2023-04-16T02:21:55.983Z,2045.00
2023-04-16T02:22:56.087Z,2040.00
2023-04-16T02:23:56.130Z,2025.00
2023-04-16T02:24:56.203Z,2031.00
2023-04-16T02:25:56.267Z,2040.00
2023-04-16T02:26:56.349Z,2024.00
2023-04-16T02:27:56.437Z,2015.00
2023-04-16T02:28:56.511Z,2036.00
2023-04-16T02:29:56.609Z,2043.00
2023-04-16T02:30:56.687Z,2024.00
2023-04-16T02:31:56.820Z,2021.00
2023-04-16T02:32:56.865Z,2025.00
2023-04-16T02:33:56.937Z,2018.00
2023-04-16T02:34:57.033Z,2025.00
2023-04-16T02:35:57.095Z,2020.00
2023-04-16T02:36:57.189Z,2011.00
2023-04-16T02:37:57.276Z,2016.00
2023-04-16T02:38:57.358Z,2004.00
2023-04-16T02:39:57.441Z,2017.00
2023-04-16T02:40:57.512Z,2022.00
2023-04-16T02:41:57.610Z,2015.00
2023-04-16T02:42:57.662Z,2006.00
2023-04-16T02:43:57.760Z,2004.00
2023-04-16T02:44:57.824Z,1998.00
2023-04-16T02:45:57.998Z,2013.00
2023-04-16T02:46:57.982Z,2001.00
2023-04-16T02:47:58.101Z,1987.00
2023-04-16T02:48:58.141Z,1988.00
2023-04-16T02:49:58.210Z,1990.00
2023-04-16T02:50:58.285Z,1992.00
2023-04-16T02:51:58.379Z,1985.00
2023-04-16T02:52:58.433Z,2000.00
2023-04-16T02:53:58.501Z,1997.00
2023-04-16T02:54:58.561Z,1987.00
2023-04-16T02:55:58.601Z,1999.00
2023-04-16T02:56:58.677Z,1989.00
2023-04-16T02:57:58.708Z,1990.00
2023-04-16T02:58:58.766Z,1959.00
2023-04-16T02:59:58.829Z,1900.00
2023-04-16T03:00:58.954Z,1858.00
2023-04-16T03:01:59.043Z,1860.00
2023-04-16T03:02:59.123Z,1793.00
2023-04-16T03:03:59.206Z,1676.00
2023-04-16T03:04:59.230Z,1584.00
2023-04-16T03:05:59.273Z,1496.00
2023-04-16T03:06:59.346Z,1378.00
2023-04-16T03:07:59.402Z,1276.00
2023-04-16T03:08:59.470Z,1204.00
2023-04-16T03:09:59.531Z,1093.00
2023-04-16T03:10:59.546Z,977.00
2023-04-16T03:11:59.584Z,907.00
2023-04-16T03:12:59.613Z,835.00
2023-04-16T03:13:59.653Z,768.00
2023-04-16T03:14:59.656Z,698.00
2023-04-16T03:15:59.739Z,637.00
2023-04-16T03:16:59.720Z,602.00
2023-04-16T03:17:59.814Z,581.00
2023-04-16T03:18:59.799Z,553.00
2023-04-16T03:19:59.854Z,519.00
2023-04-16T03:20:59.882Z,502.00
2023-04-16T03:21:59.910Z,500.00
2023-04-16T03:22:59.948Z,500.00
2023-04-16T03:23:59.977Z,484.00
2023-04-16T03:24:59.983Z,471.00
2023-04-16T03:26:00.015Z,452.00
2023-04-16T03:27:00.029Z,432.00
2023-04-16T03:28:00.066Z,419.00
2023-04-16T03:29:00.112Z,448.00
2023-04-16T03:30:00.126Z,492.00
2023-04-16T03:31:00.178Z,502.00
2023-04-16T03:32:00.134Z,498.00
2023-04-16T03:33:00.203Z,508.00
2023-04-16T03:34:00.167Z,500.00
2023-04-16T03:35:00.223Z,502.00
2023-04-16T03:36:00.198Z,500.00
2023-04-16T03:37:00.203Z,506.00
2023-04-16T03:38:00.234Z,500.00
2023-04-16T03:39:00.280Z,500.00
2023-04-16T03:40:00.273Z,500.00
2023-04-16T03:41:00.310Z,500.00
2023-04-16T03:42:00.319Z,500.00
2023-04-16T03:43:00.355Z,500.00
2023-04-16T03:44:00.355Z,502.00
2023-04-16T03:45:00.406Z,500.00
2023-04-16T03:46:00.519Z,502.00
2023-04-16T03:47:00.520Z,501.00
2023-04-16T03:48:00.566Z,500.00
2023-04-16T03:49:00.633Z,512.00
2023-04-16T03:50:00.699Z,507.00
2023-04-16T03:51:00.762Z,500.00
2023-04-16T03:52:00.836Z,504.00
2023-04-16T03:53:00.909Z,510.00
2023-04-16T03:54:01.015Z,506.00
2023-04-16T03:55:01.047Z,500.00
2023-04-16T03:56:01.127Z,506.00
2023-04-16T03:57:01.205Z,514.00
2023-04-16T03:58:01.260Z,500.00
2023-04-16T03:59:01.325Z,500.00
2023-04-16T04:00:01.421Z,500.00
2023-04-16T04:01:01.434Z,500.00
2023-04-16T04:02:01.411Z,496.00
2023-04-16T04:03:01.683Z,484.00
2023-04-16T04:04:01.617Z,494.00
2023-04-16T04:05:01.624Z,511.00
2023-04-16T04:06:01.601Z,510.00
2023-04-16T04:07:01.537Z,502.00
2023-04-16T04:08:01.546Z,500.00
2023-04-16T04:09:01.593Z,508.00
2023-04-16T04:10:01.649Z,501.00
2023-04-16T04:11:01.644Z,502.00
2023-04-16T04:12:01.711Z,506.00
2023-04-16T04:13:01.816Z,511.00
2023-04-16T04:14:01.913Z,501.00
2023-04-16T04:15:01.977Z,500.00
2023-04-16T04:16:02.181Z,500.00
2023-04-16T04:17:02.132Z,501.00
2023-04-16T04:18:02.272Z,508.00
2023-04-16T04:19:02.293Z,500.00
2023-04-16T04:20:02.417Z,509.00
2023-04-16T04:21:02.463Z,502.00
2023-04-16T04:22:02.547Z,500.00
2023-04-16T04:23:02.638Z,501.00
2023-04-16T04:24:02.739Z,521.00
2023-04-16T04:25:02.839Z,511.00
2023-04-16T04:26:02.977Z,511.00
2023-04-16T04:27:03.004Z,509.00
2023-04-16T04:28:03.089Z,523.00
2023-04-16T04:29:03.197Z,526.00
2023-04-16T04:30:03.320Z,513.00
2023-04-16T04:31:03.366Z,514.00
2023-04-16T04:32:03.503Z,530.00
2023-04-16T04:33:03.595Z,524.00
2023-04-16T04:34:03.688Z,529.00
2023-04-16T04:35:03.830Z,523.00
2023-04-16T04:36:03.829Z,525.00
2023-04-16T04:37:03.934Z,528.00
2023-04-16T04:38:04.005Z,507.00
2023-04-16T04:39:04.106Z,517.00
2023-04-16T04:40:04.185Z,526.00
2023-04-16T04:41:04.305Z,519.00
2023-04-16T04:42:04.381Z,515.00
2023-04-16T04:43:04.464Z,508.00
2023-04-16T04:44:04.561Z,506.00
2023-04-16T04:45:04.669Z,513.00
2023-04-16T04:46:04.815Z,504.00
2023-04-16T04:47:04.855Z,507.00
2023-04-16T04:48:05.023Z,504.00
2023-04-16T04:49:05.032Z,506.00
2023-04-16T04:50:05.105Z,505.00
2023-04-16T04:51:05.568Z,500.00
2023-04-16T04:52:05.312Z,504.00
2023-04-16T04:53:05.394Z,501.00
2023-04-16T04:54:05.478Z,500.00
2023-04-16T04:55:05.551Z,500.00
2023-04-16T04:56:12.143Z,508.00
2023-04-16T04:57:05.667Z,508.00
2023-04-16T04:58:05.694Z,503.00
2023-04-16T04:59:05.733Z,484.00
2023-04-16T05:00:05.734Z,477.00
2023-04-16T05:01:05.796Z,485.00
2023-04-16T05:02:05.848Z,505.00
2023-04-16T05:03:05.954Z,519.00
2023-04-16T05:04:05.927Z,516.00
2023-04-16T05:05:05.961Z,522.00
2023-04-16T05:06:05.950Z,514.00
2023-04-16T05:07:06.029Z,521.00
2023-04-16T05:08:06.126Z,533.00
2023-04-16T05:09:06.211Z,532.00
2023-04-16T05:10:06.268Z,517.00
2023-04-16T05:11:06.326Z,514.00
2023-04-16T05:12:06.387Z,509.00
2023-04-16T05:13:06.462Z,522.00
2023-04-16T05:14:06.532Z,515.00
2023-04-16T05:15:06.601Z,514.00
2023-04-16T05:16:06.658Z,530.00
2023-04-16T05:17:06.771Z,552.00
2023-04-16T05:18:06.796Z,555.00
2023-04-16T05:19:06.980Z,556.00
2023-04-16T05:20:06.919Z,552.00
2023-04-16T05:21:07.011Z,583.00
2023-04-16T05:22:07.076Z,586.00
2023-04-16T05:23:07.163Z,573.00
2023-04-16T05:24:07.219Z,575.00
2023-04-16T05:25:07.297Z,584.00
2023-04-16T05:26:07.354Z,588.00
2023-04-16T05:27:07.448Z,587.00
2023-04-16T05:28:07.500Z,594.00
2023-04-16T05:29:07.810Z,594.00
2023-04-16T05:30:07.671Z,600.00
2023-04-16T05:31:07.745Z,599.00
2023-04-16T05:32:07.779Z,596.00
2023-04-16T05:33:07.847Z,603.00
2023-04-16T05:34:07.928Z,606.00
2023-04-16T05:35:07.969Z,606.00
2023-04-16T05:36:08.046Z,608.00
2023-04-16T05:37:08.089Z,611.00
2023-04-16T05:38:08.174Z,613.00
2023-04-16T05:39:08.454Z,602.00
2023-04-16T05:40:08.290Z,606.00
2023-04-16T05:41:08.365Z,609.00
2023-04-16T05:42:08.422Z,608.00
2023-04-16T05:43:08.490Z,616.00
2023-04-16T05:44:08.563Z,631.00
2023-04-16T05:45:08.618Z,642.00
2023-04-16T05:46:08.741Z,641.00
2023-04-16T05:47:08.734Z,646.00
2023-04-16T05:48:08.801Z,638.00
2023-04-16T05:49:09.308Z,643.00
2023-04-16T05:50:08.922Z,655.00
2023-04-16T05:51:08.980Z,655.00
2023-04-16T05:52:09.031Z,664.00
2023-04-16T05:53:09.107Z,679.00
2023-04-16T05:54:09.165Z,695.00
2023-04-16T05:55:09.223Z,692.00
2023-04-16T05:56:09.265Z,693.00
2023-04-16T05:57:09.290Z,695.00
2023-04-16T05:58:09.314Z,704.00
2023-04-16T05:59:09.559Z,731.00
2023-04-16T06:00:09.374Z,772.00
2023-04-16T06:01:09.393Z,811.00
2023-04-16T06:02:09.502Z,831.00
2023-04-16T06:03:09.604Z,845.00
2023-04-16T06:04:09.561Z,872.00
2023-04-16T06:05:09.542Z,864.00
2023-04-16T06:06:09.566Z,859.00
2023-04-16T06:07:09.616Z,878.00
2023-04-16T06:08:09.689Z,879.00
2023-04-16T06:09:09.807Z,874.00
2023-04-16T06:10:09.829Z,852.00
2023-04-16T06:11:09.869Z,842.00
2023-04-16T06:12:09.924Z,823.00
2023-04-16T06:13:09.977Z,814.00
2023-04-16T06:14:10.042Z,797.00
2023-04-16T06:15:10.122Z,824.00
2023-04-16T06:16:10.228Z,832.00
2023-04-16T06:17:10.240Z,827.00
2023-04-16T06:18:10.318Z,824.00
2023-04-16T06:19:10.616Z,776.00
2023-04-16T06:20:10.452Z,739.00
2023-04-16T06:21:10.493Z,781.00
2023-04-16T06:22:10.565Z,774.00
2023-04-16T06:23:10.629Z,796.00
2023-04-16T06:24:10.701Z,785.00
2023-04-16T06:25:10.769Z,771.00
2023-04-16T06:26:10.822Z,795.00
2023-04-16T06:27:10.894Z,787.00
2023-04-16T06:28:10.961Z,781.00
2023-04-16T06:29:11.173Z,797.00
2023-04-16T06:30:11.084Z,774.00
2023-04-16T06:31:11.180Z,761.00
2023-04-16T06:32:11.241Z,759.00
2023-04-16T06:33:11.298Z,723.00
2023-04-16T06:34:11.332Z,742.00
2023-04-16T06:35:11.402Z,719.00
2023-04-16T06:36:11.609Z,708.00
2023-04-16T06:37:11.492Z,708.00
2023-04-16T06:38:11.518Z,709.00
2023-04-16T06:39:11.768Z,704.00
2023-04-16T06:40:11.623Z,705.00
2023-04-16T06:41:11.614Z,691.00
2023-04-16T06:42:11.622Z,685.00
2023-04-16T06:43:11.661Z,697.00
2023-04-16T06:44:11.677Z,679.00
2023-04-16T06:45:11.728Z,665.00
2023-04-16T06:46:11.750Z,658.00
2023-04-16T06:47:11.853Z,656.00
2023-04-16T06:48:11.829Z,653.00
2023-04-16T06:49:12.079Z,653.00
2023-04-16T06:50:11.995Z,642.00
2023-04-16T06:51:12.049Z,647.00
2023-04-16T06:52:12.114Z,644.00
2023-04-16T06:53:12.167Z,630.00
2023-04-16T06:54:12.249Z,630.00
2023-04-16T06:55:12.308Z,636.00
2023-04-16T06:56:12.385Z,637.00
2023-04-16T06:57:12.448Z,640.00
2023-04-16T06:58:12.503Z,638.00
2023-04-16T06:59:12.568Z,607.00
2023-04-16T07:00:12.631Z,621.00
2023-04-16T07:01:12.859Z,614.00
2023-04-16T07:02:12.776Z,616.00
2023-04-16T07:03:12.914Z,612.00
2023-04-16T07:04:12.952Z,606.00
2023-04-16T07:05:12.941Z,607.00
2023-04-16T07:06:13.009Z,605.00
2023-04-16T07:07:13.083Z,612.00
2023-04-16T07:08:13.147Z,612.00
2023-04-16T07:09:13.199Z,608.00
2023-04-16T07:10:13.266Z,606.00
2023-04-16T07:11:13.378Z,620.00
2023-04-16T07:12:13.438Z,618.00
2023-04-16T07:13:13.488Z,613.00
2023-04-16T07:14:13.559Z,609.00
2023-04-16T07:15:13.646Z,605.00
2023-04-16T07:16:13.783Z,610.00
2023-04-16T07:17:13.777Z,624.00
2023-04-16T07:18:13.847Z,625.00
2023-04-16T07:19:13.901Z,642.00
2023-04-16T07:20:13.973Z,645.00
2023-04-16T07:21:14.040Z,653.00
2023-04-16T07:22:14.135Z,666.00
2023-04-16T07:23:14.173Z,670.00
2023-04-16T07:24:14.230Z,678.00
2023-04-16T07:25:14.285Z,664.00
2023-04-16T07:26:14.356Z,676.00
2023-04-16T07:27:14.422Z,654.00
2023-04-16T07:28:14.484Z,646.00
2023-04-16T07:29:14.547Z,652.00
2023-04-16T07:30:14.601Z,633.00
2023-04-16T07:31:14.636Z,637.00
2023-04-16T07:32:15.598Z,621.00
2023-04-16T07:33:14.777Z,629.00
2023-04-16T07:34:14.844Z,639.00
2023-04-16T07:35:14.922Z,635.00
2023-04-16T07:36:14.975Z,639.00
2023-04-16T07:37:15.031Z,634.00
2023-04-16T07:38:15.094Z,633.00
2023-04-16T07:39:15.156Z,630.00
2023-04-16T07:40:15.206Z,621.00
2023-04-16T07:41:15.265Z,627.00
2023-04-16T07:42:15.343Z,616.00
2023-04-16T07:43:15.409Z,623.00
2023-04-16T07:44:15.486Z,598.00
2023-04-16T07:45:15.532Z,607.00
2023-04-16T07:46:15.683Z,618.00
2023-04-16T07:47:15.651Z,604.00
2023-04-16T07:48:15.720Z,605.00
2023-04-16T07:49:15.794Z,595.00
2023-04-16T07:50:15.851Z,586.00
2023-04-16T07:51:15.897Z,593.00
2023-04-16T07:52:15.967Z,602.00
2023-04-16T07:53:16.047Z,611.00
2023-04-16T07:54:16.061Z,602.00
2023-04-16T07:55:16.133Z,607.00
2023-04-16T07:56:16.205Z,603.00
2023-04-16T07:57:16.266Z,591.00
2023-04-16T07:58:16.335Z,585.00
2023-04-16T07:59:22.504Z,593.00
2023-04-16T08:00:17.429Z,594.00
2023-04-16T08:01:16.436Z,589.00
2023-04-16T08:02:16.555Z,584.00
2023-04-16T08:03:16.669Z,596.00
2023-04-16T08:04:16.657Z,601.00
2023-04-16T08:05:16.569Z,596.00
2023-04-16T08:06:16.551Z,599.00
2023-04-16T08:07:16.556Z,594.00
2023-04-16T08:08:16.579Z,592.00
2023-04-16T08:09:16.612Z,610.00
2023-04-16T08:10:16.670Z,603.00
2023-04-16T08:11:16.713Z,597.00
2023-04-16T08:12:16.764Z,586.00
2023-04-16T08:13:16.844Z,587.00
2023-04-16T08:14:16.885Z,594.00
2023-04-16T08:15:16.928Z,596.00
2023-04-16T08:16:17.033Z,573.00
2023-04-16T08:17:17.058Z,579.00
2023-04-16T08:18:17.095Z,587.00
2023-04-16T08:19:17.166Z,584.00
2023-04-16T08:20:19.267Z,587.00
2023-04-16T08:21:17.310Z,583.00
2023-04-16T08:22:17.397Z,587.00
2023-04-16T08:23:17.450Z,568.00
2023-04-16T08:24:17.521Z,580.00
2023-04-16T08:25:17.590Z,571.00
2023-04-16T08:26:17.667Z,570.00
2023-04-16T08:27:19.991Z,554.00
2023-04-16T08:28:17.740Z,563.00
2023-04-16T08:29:17.760Z,564.00
2023-04-16T08:30:17.787Z,566.00
2023-04-16T08:31:17.853Z,572.00
2023-04-16T08:32:17.836Z,574.00
2023-04-16T08:33:17.857Z,573.00
2023-04-16T08:34:17.886Z,566.00
2023-04-16T08:35:17.910Z,575.00
2023-04-16T08:36:17.940Z,597.00
2023-04-16T08:37:17.975Z,573.00
2023-04-16T08:38:17.994Z,570.00
2023-04-16T08:39:18.006Z,567.00
2023-04-16T08:40:18.036Z,555.00
2023-04-16T08:41:18.079Z,572.00
2023-04-16T08:42:18.100Z,577.00
2023-04-16T08:43:18.121Z,580.00
2023-04-16T08:44:18.147Z,582.00
2023-04-16T08:45:18.187Z,586.00
2023-04-16T08:46:18.251Z,594.00
2023-04-16T08:47:18.280Z,590.00
2023-04-16T08:48:18.252Z,594.00
2023-04-16T08:49:18.273Z,592.00
2023-04-16T08:50:18.311Z,606.00
2023-04-16T08:51:18.324Z,607.00
2023-04-16T08:52:18.336Z,601.00
2023-04-16T08:53:18.367Z,598.00
2023-04-16T08:54:18.393Z,600.00
2023-04-16T08:55:18.411Z,599.00
2023-04-16T08:56:18.430Z,593.00
2023-04-16T08:57:18.436Z,560.00
2023-04-16T08:58:18.445Z,573.00
2023-04-16T08:59:18.473Z,586.00
2023-04-16T09:00:18.472Z,582.00
2023-04-16T09:01:18.583Z,566.00
2023-04-16T09:02:18.647Z,614.00
2023-04-16T09:03:18.676Z,621.00
2023-04-16T09:04:18.653Z,644.00
2023-04-16T09:05:18.618Z,697.00
2023-04-16T09:06:18.713Z,732.00
2023-04-16T09:07:18.788Z,770.00
2023-04-16T09:08:18.866Z,813.00
2023-04-16T09:09:18.928Z,867.00
2023-04-16T09:10:19.020Z,949.00
2023-04-16T09:11:19.112Z,1002.00
2023-04-16T09:12:19.154Z,1022.00
2023-04-16T09:13:19.221Z,1100.00
2023-04-16T09:14:19.285Z,1148.00
2023-04-16T09:15:19.346Z,1164.00
2023-04-16T09:16:19.510Z,1209.00
2023-04-16T09:17:19.511Z,1246.00
2023-04-16T09:18:19.531Z,1310.00
2023-04-16T09:19:19.585Z,1360.00
2023-04-16T09:20:19.658Z,1407.00
2023-04-16T09:21:21.019Z,1452.00
2023-04-16T09:22:19.737Z,1497.00
2023-04-16T09:23:19.805Z,1525.00
2023-04-16T09:24:19.848Z,1576.00
2023-04-16T09:25:19.891Z,1625.00
2023-04-16T09:26:19.985Z,1652.00
2023-04-16T09:27:19.989Z,1692.00
2023-04-16T09:28:20.033Z,1738.00
2023-04-16T09:29:20.082Z,1766.00
2023-04-16T09:30:20.127Z,1776.00
2023-04-16T09:31:20.277Z,1801.00
2023-04-16T09:32:20.294Z,1833.00
2023-04-16T09:33:20.276Z,1880.00
2023-04-16T09:34:20.321Z,1920.00
2023-04-16T09:35:20.404Z,1947.00
2023-04-16T09:36:20.408Z,1983.00
2023-04-16T09:37:20.459Z,2020.00
2023-04-16T09:38:20.479Z,2046.00
2023-04-16T09:39:20.522Z,2078.00
2023-04-16T09:40:20.553Z,2089.00
2023-04-16T09:41:20.586Z,2115.00
2023-04-16T09:42:20.691Z,2137.00
2023-04-16T09:43:20.655Z,2158.00
2023-04-16T09:44:20.709Z,2182.00
2023-04-16T09:45:20.706Z,2199.00
2023-04-16T09:46:20.782Z,2227.00
2023-04-16T09:47:20.822Z,2236.00
2023-04-16T09:48:20.785Z,2258.00
2023-04-16T09:49:20.809Z,2269.00
2023-04-16T09:50:20.944Z,2305.00
2023-04-16T09:51:20.943Z,2313.00
2023-04-16T09:52:20.917Z,2343.00
2023-04-16T09:53:20.952Z,2339.00
2023-04-16T09:54:20.976Z,2373.00
2023-04-16T09:55:20.987Z,2374.00
2023-04-16T09:56:21.046Z,2391.00
2023-04-16T09:57:21.034Z,2398.00
2023-04-16T09:58:21.101Z,2411.00
2023-04-16T09:59:21.143Z,2423.00
2023-04-16T10:00:21.107Z,2444.00
2023-04-16T10:01:21.184Z,2458.00
2023-04-16T10:02:21.266Z,2472.00
2023-04-16T10:03:21.283Z,2474.00
2023-04-16T10:04:21.228Z,2501.00
2023-04-16T10:05:21.243Z,2505.00
2023-04-16T10:06:21.285Z,2509.00
2023-04-16T10:07:21.359Z,2522.00
2023-04-16T10:08:21.424Z,2529.00
2023-04-16T10:09:21.497Z,2538.00
2023-04-16T10:10:21.565Z,2548.00
2023-04-16T10:11:21.710Z,2556.00
2023-04-16T10:12:21.674Z,2564.00
2023-04-16T10:13:21.729Z,2571.00
2023-04-16T10:14:21.803Z,2597.00
2023-04-16T10:15:21.847Z,2585.00
2023-04-16T10:16:21.957Z,2606.00
2023-04-16T10:17:21.986Z,2609.00
2023-04-16T10:18:22.049Z,2616.00
2023-04-16T10:19:22.125Z,2613.00
2023-04-16T10:20:22.260Z,2638.00
2023-04-16T10:21:22.285Z,2643.00
2023-04-16T10:22:22.368Z,2655.00
2023-04-16T10:23:22.457Z,2650.00
2023-04-16T10:24:22.534Z,2669.00
2023-04-16T10:25:22.609Z,2673.00
2023-04-16T10:26:22.708Z,2684.00
2023-04-16T10:27:22.787Z,2685.00
2023-04-16T10:28:22.839Z,2692.00
2023-04-16T10:29:22.912Z,2707.00
2023-04-16T10:30:22.998Z,2704.00
2023-04-16T10:31:23.156Z,2715.00
2023-04-16T10:32:23.092Z,2716.00
2023-04-16T10:33:23.065Z,2717.00
2023-04-16T10:34:23.063Z,2715.00
2023-04-16T10:35:23.069Z,2718.00
2023-04-16T10:36:23.076Z,2735.00
2023-04-16T10:37:23.106Z,2734.00
2023-04-16T10:38:23.162Z,2745.00
2023-04-16T10:39:23.108Z,2745.00
2023-04-16T10:40:23.113Z,2751.00
2023-04-16T10:41:23.143Z,2750.00
2023-04-16T10:42:23.227Z,2751.00
2023-04-16T10:43:23.283Z,2750.00
2023-04-16T10:44:23.350Z,2747.00
2023-04-16T10:45:23.418Z,2740.00
2023-04-16T10:46:23.497Z,2749.00
2023-04-16T10:47:23.591Z,2762.00
2023-04-16T10:48:23.596Z,2771.00
2023-04-16T10:49:23.678Z,2754.00
2023-04-16T10:50:23.749Z,2752.00
2023-04-16T10:51:23.779Z,2770.00
2023-04-16T10:52:23.856Z,2756.00
2023-04-16T10:53:23.914Z,2764.00
2023-04-16T10:54:23.984Z,2766.00
2023-04-16T10:55:24.052Z,2773.00
2023-04-16T10:56:24.121Z,2771.00
2023-04-16T10:57:24.120Z,2771.00
2023-04-16T10:58:24.124Z,2772.00
2023-04-16T10:59:24.144Z,2776.00
2023-04-16T11:00:24.161Z,2791.00
2023-04-16T11:01:24.167Z,2777.00
2023-04-16T11:02:25.262Z,2784.00
2023-04-16T11:03:24.301Z,2803.00
2023-04-16T11:04:24.426Z,2789.00
2023-04-16T11:05:24.228Z,2780.00
2023-04-16T11:06:24.242Z,2790.00
2023-04-16T11:07:24.251Z,2790.00
2023-04-16T11:08:25.898Z,2794.00
2023-04-16T11:09:24.261Z,2794.00
2023-04-16T11:10:24.263Z,2794.00
2023-04-16T11:11:24.285Z,2795.00
2023-04-16T11:12:24.352Z,2795.00
2023-04-16T11:13:24.312Z,2797.00
2023-04-16T11:14:24.320Z,2791.00
2023-04-16T11:15:24.373Z,2802.00
2023-04-16T11:16:24.384Z,2796.00
2023-04-16T11:17:24.399Z,2789.00
2023-04-16T11:18:24.401Z,2783.00
2023-04-16T11:19:24.463Z,2797.00
2023-04-16T11:20:24.508Z,2786.00
2023-04-16T11:21:24.565Z,2798.00
2023-04-16T11:22:24.608Z,2789.00
2023-04-16T11:23:24.653Z,2799.00
2023-04-16T11:24:26.224Z,2779.00
2023-04-16T11:25:24.733Z,2776.00
2023-04-16T11:26:24.773Z,2806.00
2023-04-16T11:27:24.842Z,2783.00
2023-04-16T11:28:24.855Z,2778.00
2023-04-16T11:29:24.897Z,2791.00
2023-04-16T11:30:24.944Z,2784.00
2023-04-16T11:31:25.042Z,2779.00
2023-04-16T11:32:25.051Z,2774.00
2023-04-16T11:33:25.072Z,2791.00
2023-04-16T11:34:25.136Z,2769.00
2023-04-16T11:35:25.173Z,2790.00
2023-04-16T11:36:27.345Z,2777.00
2023-04-16T11:37:25.277Z,2772.00
2023-04-16T11:38:25.310Z,2762.00
2023-04-16T11:39:25.350Z,2773.00
2023-04-16T11:40:25.397Z,2768.00
2023-04-16T11:41:25.445Z,2761.00
2023-04-16T11:42:25.524Z,2773.00
2023-04-16T11:43:25.527Z,2786.00
2023-04-16T11:44:25.578Z,2776.00
2023-04-16T11:45:25.624Z,2769.00
2023-04-16T11:46:27.965Z,2747.00
2023-04-16T11:47:25.804Z,2763.00
2023-04-16T11:48:25.749Z,2783.00
2023-04-16T11:49:25.792Z,2779.00
2023-04-16T11:50:25.851Z,2758.00
2023-04-16T11:51:25.886Z,2750.00
2023-04-16T11:52:25.931Z,2771.00
2023-04-16T11:53:25.990Z,2756.00
2023-04-16T11:54:26.000Z,2744.00
2023-04-16T11:55:26.057Z,2754.00
2023-04-16T11:56:26.093Z,2770.00
2023-04-16T11:57:26.142Z,2768.00
2023-04-16T11:58:26.181Z,2749.00
2023-04-16T11:59:26.238Z,2742.00
2023-04-16T12:00:26.271Z,2751.00
2023-04-16T12:01:26.316Z,2754.00
2023-04-16T12:02:26.689Z,2742.00
2023-04-16T12:03:26.564Z,2748.00
2023-04-16T12:04:26.442Z,2749.00
2023-04-16T12:05:26.438Z,2750.00
2023-04-16T12:06:26.448Z,2752.00
2023-04-16T12:07:26.499Z,2754.00
2023-04-16T12:08:26.501Z,2759.00
2023-04-16T12:09:26.510Z,2750.00
2023-04-16T12:10:26.534Z,2754.00
2023-04-16T12:11:26.568Z,2759.00
2023-04-16T12:12:26.598Z,2745.00
2023-04-16T12:13:26.600Z,2746.00
2023-04-16T12:14:26.604Z,2744.00
2023-04-16T12:15:26.600Z,2745.00
2023-04-16T12:16:26.659Z,2747.00
2023-04-16T12:17:26.673Z,2754.00